createdAt,value
2022-09-20T00:01:28.156Z,70.51
2022-09-20T00:03:57.780Z,70.02
2022-09-20T00:06:29.555Z,70.63
2022-09-20T00:08:59.434Z,70.51
2022-09-20T00:11:29.116Z,70.61
2022-09-20T00:13:58.966Z,71.21
2022-09-20T00:16:28.933Z,71.30
2022-09-20T00:18:58.702Z,70.36
2022-09-20T00:21:29.602Z,71.89
2022-09-20T00:23:58.094Z,70.40
2022-09-20T00:26:26.489Z,71.49
2022-09-20T00:28:54.209Z,71.13
2022-09-20T00:31:21.847Z,71.19
2022-09-20T00:34:07.551Z,71.15
2022-09-20T00:36:38.395Z,71.07
2022-09-20T00:39:06.244Z,70.90
2022-09-20T00:41:34.304Z,70.64
2022-09-20T00:44:03.766Z,70.49
2022-09-20T00:50:38.077Z,70.13
2022-09-20T00:53:10.409Z,71.17
2022-09-20T00:55:40.944Z,70.44
2022-09-20T00:58:14.947Z,71.52
2022-09-20T01:01:01.411Z,70.38
2022-09-20T01:03:42.026Z,69.95
2022-09-20T01:06:20.143Z,70.38
2022-09-20T01:09:02.312Z,71.05
2022-09-20T01:11:30.941Z,70.51
2022-09-20T01:14:05.152Z,70.55
2022-09-20T01:16:38.013Z,70.47
2022-09-20T01:19:23.110Z,70.94
2022-09-20T01:21:51.437Z,70.17
2022-09-20T01:24:26.347Z,70.63
2022-09-20T01:27:19.797Z,70.97
2022-09-20T01:30:15.019Z,70.56
2022-09-20T01:32:53.161Z,70.81
2022-09-20T01:35:24.417Z,70.57
2022-09-20T01:38:06.033Z,71.36
2022-09-20T01:40:44.806Z,70.58
2022-09-20T01:43:19.864Z,70.62
2022-09-20T01:45:50.394Z,70.82
2022-09-20T01:48:31.591Z,69.91
2022-09-20T01:51:32.583Z,70.44
2022-09-20T01:54:25.182Z,71.11
2022-09-20T01:57:27.451Z,71.24
2022-09-20T02:00:06.952Z,70.91
2022-09-20T02:03:06.994Z,71.40
2022-09-20T02:05:59.017Z,71.60
2022-09-20T02:08:42.867Z,70.48
2022-09-20T02:11:14.672Z,70.63
2022-09-20T02:14:02.331Z,70.87
2022-09-20T02:16:46.837Z,71.21
2022-09-20T02:19:39.116Z,70.64
2022-09-20T02:22:18.378Z,71.18
2022-09-20T02:24:54.291Z,72.12
2022-09-20T02:27:27.582Z,71.44
2022-09-20T02:30:07.925Z,71.45
2022-09-20T02:33:06.776Z,70.98
2022-09-20T02:35:51.964Z,71.50
2022-09-20T02:38:33.763Z,71.15
2022-09-20T02:41:26.246Z,72.19
2022-09-20T02:44:01.327Z,70.97
2022-09-20T02:46:38.768Z,71.21
2022-09-20T02:49:14.717Z,71.91
2022-09-20T02:51:51.856Z,71.37
2022-09-20T02:54:33.089Z,71.45
2022-09-20T02:57:08.040Z,71.58
2022-09-20T02:59:45.561Z,71.54
2022-09-20T03:02:24.074Z,71.85
2022-09-20T03:05:07.200Z,71.61
2022-09-20T03:07:47.208Z,72.09
2022-09-20T03:10:21.430Z,71.30
2022-09-20T03:13:07.160Z,71.73
2022-09-20T03:15:43.951Z,71.01
2022-09-20T03:18:15.753Z,71.24
2022-09-20T03:20:55.849Z,71.50
2022-09-20T03:23:41.264Z,71.12
2022-09-20T03:26:19.823Z,71.05
2022-09-20T03:29:03.505Z,71.24
2022-09-20T03:31:48.544Z,72.17
2022-09-20T03:34:31.533Z,71.63
2022-09-20T03:37:15.356Z,71.95
2022-09-20T03:40:07.896Z,70.95
2022-09-20T03:42:42.360Z,71.34
2022-09-20T03:45:30.813Z,71.76
2022-09-20T03:48:22.790Z,71.66
2022-09-20T03:51:11.335Z,72.86
2022-09-20T03:53:55.758Z,71.75
2022-09-20T03:56:44.796Z,71.51
2022-09-20T03:59:29.200Z,71.82
2022-09-20T04:02:22.074Z,71.62
2022-09-20T04:04:55.757Z,71.16
2022-09-20T04:07:33.943Z,71.62
2022-09-20T04:10:17.250Z,72.54
2022-09-20T04:12:57.002Z,71.87
2022-09-20T04:15:33.019Z,71.79
2022-09-20T04:18:09.409Z,72.82
2022-09-20T04:20:46.226Z,72.10
2022-09-20T04:23:26.661Z,73.57
2022-09-20T04:25:54.310Z,72.55
2022-09-20T04:28:30.157Z,71.46
2022-09-20T04:31:06.041Z,73.25
2022-09-20T04:33:41.047Z,72.15
2022-09-20T04:36:29.881Z,72.19
2022-09-20T04:39:06.225Z,71.81
2022-09-20T04:42:00.638Z,72.77
2022-09-20T04:44:49.442Z,72.62
2022-09-20T04:48:02.604Z,71.75
2022-09-20T04:50:46.024Z,73.11
2022-09-20T04:54:04.055Z,72.09
2022-09-20T04:56:46.236Z,72.43
2022-09-20T04:59:22.951Z,72.21
2022-09-20T05:02:23.255Z,73.73
2022-09-20T05:05:28.542Z,72.68
2022-09-20T05:08:34.960Z,73.89
2022-09-20T05:11:30.462Z,72.89
2022-09-20T05:14:17.111Z,73.93
2022-09-20T05:17:02.659Z,73.23
2022-09-20T05:19:44.826Z,74.35
2022-09-20T05:22:41.173Z,73.11
2022-09-20T05:25:28.668Z,72.89
2022-09-20T05:28:03.787Z,73.04
2022-09-20T05:30:37.974Z,73.07
2022-09-20T05:33:20.390Z,72.71
2022-09-20T05:36:00.353Z,72.21
2022-09-20T05:38:35.329Z,71.83
2022-09-20T05:41:14.100Z,72.98
2022-09-20T05:44:10.651Z,72.34
2022-09-20T05:46:51.641Z,71.96
2022-09-20T05:49:34.528Z,72.69
2022-09-20T05:52:21.251Z,72.24
2022-09-20T05:55:07.810Z,72.02
2022-09-20T05:57:54.649Z,71.92
2022-09-20T06:00:29.055Z,71.99
2022-09-20T06:03:05.861Z,71.20
2022-09-20T06:05:42.709Z,71.95
2022-09-20T06:08:32.371Z,72.07
2022-09-20T06:11:20.167Z,72.06
2022-09-20T06:14:03.868Z,71.87
2022-09-20T06:16:42.981Z,71.32
2022-09-20T06:19:19.790Z,71.77
2022-09-20T06:21:53.485Z,71.75
2022-09-20T06:24:33.972Z,71.52
2022-09-20T06:27:09.833Z,71.73
2022-09-20T06:29:41.706Z,70.57
2022-09-20T06:32:09.494Z,71.02
2022-09-20T06:34:37.749Z,70.51
2022-09-20T06:37:37.311Z,70.32
2022-09-20T06:40:39.242Z,70.46
2022-09-20T06:43:07.168Z,69.81
2022-09-20T06:45:35.381Z,69.65
2022-09-20T06:48:03.811Z,69.19
2022-09-20T06:50:32.703Z,69.07
2022-09-20T06:53:00.123Z,67.77
2022-09-20T06:55:33.052Z,66.45
2022-09-20T06:58:00.814Z,65.49
2022-09-20T07:00:28.364Z,65.18
2022-09-20T07:02:56.745Z,64.99
2022-09-20T07:05:24.384Z,65.38
2022-09-20T07:07:57.077Z,63.88
2022-09-20T07:10:24.745Z,63.76
2022-09-20T07:12:56.799Z,60.42
2022-09-20T07:15:24.773Z,60.63
2022-09-20T07:17:52.969Z,59.43
2022-09-20T07:20:21.545Z,59.33
2022-09-20T07:22:49.532Z,58.20
2022-09-20T07:25:18.654Z,57.75
2022-09-20T07:27:47.504Z,57.80
2022-09-20T07:30:18.268Z,57.82
2022-09-20T07:32:46.344Z,56.86
2022-09-20T07:35:16.869Z,57.51
2022-09-20T07:37:44.864Z,58.05
2022-09-20T07:40:12.901Z,58.67
2022-09-20T07:42:40.494Z,56.70
2022-09-20T07:45:08.989Z,57.63
2022-09-20T07:47:41.200Z,57.11
2022-09-20T07:50:11.654Z,56.09
2022-09-20T07:52:39.391Z,55.93
2022-09-20T07:55:07.986Z,55.16
2022-09-20T07:57:37.497Z,55.42
2022-09-20T08:00:09.044Z,57.31
2022-09-20T08:02:45.219Z,57.62
2022-09-20T08:05:13.274Z,59.14
2022-09-20T08:07:40.840Z,58.79
2022-09-20T08:10:09.303Z,59.63
2022-09-20T08:15:26.877Z,60.80
2022-09-20T08:17:56.802Z,60.44
2022-09-20T08:20:26.892Z,61.29
2022-09-20T08:23:19.286Z,61.66
2022-09-20T08:25:43.624Z,61.63
2022-09-20T08:28:13.959Z,62.16
2022-09-20T08:30:42.579Z,61.12
2022-09-20T08:33:13.255Z,61.59
2022-09-20T08:35:40.805Z,61.75
2022-09-20T08:41:01.698Z,61.78
2022-09-20T08:43:34.922Z,62.02
2022-09-20T08:46:06.119Z,61.70
2022-09-20T08:48:35.075Z,61.76
2022-09-20T08:51:05.656Z,61.16
2022-09-20T08:53:34.361Z,61.72
2022-09-20T08:56:04.323Z,61.35
2022-09-20T08:58:31.916Z,60.83
2022-09-20T09:01:00.103Z,61.06
2022-09-20T09:03:28.345Z,59.73
2022-09-20T09:05:58.133Z,59.87
2022-09-20T09:08:28.530Z,60.38
2022-09-20T09:10:58.793Z,59.43
2022-09-20T09:13:32.405Z,56.58
2022-09-20T09:16:07.098Z,54.22
2022-09-20T09:21:37.784Z,49.62
2022-09-20T09:24:10.147Z,48.42
2022-09-20T09:26:39.940Z,47.27
2022-09-20T09:29:10.396Z,47.60
2022-09-20T09:31:39.750Z,47.73
2022-09-20T09:34:24.302Z,43.47
2022-09-20T09:36:59.245Z,44.21
2022-09-20T09:39:29.628Z,43.34
2022-09-20T09:42:00.861Z,42.83
2022-09-20T09:44:30.128Z,44.49
2022-09-20T09:46:58.835Z,45.72
2022-09-20T09:49:27.825Z,45.03
2022-09-20T09:52:12.948Z,43.55
2022-09-20T09:54:42.162Z,45.89
2022-09-20T09:57:22.028Z,43.90
2022-09-20T10:00:09.356Z,43.72
2022-09-20T10:03:14.063Z,41.74
2022-09-20T10:05:48.312Z,44.35
2022-09-20T10:08:29.815Z,41.32
2022-09-20T10:11:07.599Z,42.27
2022-09-20T10:13:43.610Z,41.05
2022-09-20T10:16:20.981Z,40.93
2022-09-20T10:18:56.139Z,41.44
2022-09-20T10:21:41.954Z,38.61
2022-09-20T10:24:19.699Z,43.05
2022-09-20T10:27:00.391Z,40.99
2022-09-20T10:29:41.826Z,41.54
2022-09-20T10:32:28.912Z,43.77
2022-09-20T10:35:14.140Z,41.13
2022-09-20T10:37:54.917Z,40.22
2022-09-20T10:40:51.395Z,43.17
2022-09-20T10:43:31.044Z,40.84
2022-09-20T10:46:30.930Z,41.32
2022-09-20T10:49:04.601Z,40.93
2022-09-20T10:51:44.465Z,41.46
2022-09-20T10:54:27.050Z,43.61
2022-09-20T10:57:10.439Z,44.65
2022-09-20T10:59:48.362Z,45.75
2022-09-20T11:02:36.800Z,46.59
2022-09-20T11:05:21.368Z,48.19
2022-09-20T11:07:59.976Z,49.02
2022-09-20T11:10:36.164Z,48.79
2022-09-20T11:13:09.814Z,50.09
2022-09-20T11:15:44.094Z,51.05
2022-09-20T11:18:23.547Z,49.45
2022-09-20T11:20:58.474Z,51.12
2022-09-20T11:23:34.002Z,51.79
2022-09-20T11:26:08.419Z,52.45
2022-09-20T11:28:43.229Z,53.81
2022-09-20T11:31:18.860Z,53.43
2022-09-20T11:33:52.167Z,54.53
2022-09-20T11:36:24.722Z,54.90
2022-09-20T11:38:57.283Z,55.58
2022-09-20T11:41:28.332Z,55.59
2022-09-20T11:44:02.486Z,56.25
2022-09-20T11:46:34.429Z,56.88
2022-09-20T11:49:05.183Z,56.54
2022-09-20T11:51:54.859Z,56.95
2022-09-20T11:54:49.594Z,57.52
2022-09-20T11:57:17.729Z,57.72
2022-09-20T11:59:54.283Z,57.24
2022-09-20T12:02:27.143Z,57.70
2022-09-20T12:04:59.049Z,58.09
2022-09-20T12:07:29.880Z,57.70
2022-09-20T12:10:00.807Z,57.78
2022-09-20T12:12:37.432Z,57.60
2022-09-20T12:15:22.770Z,58.19
2022-09-20T12:18:16.140Z,58.40
2022-09-20T12:21:01.904Z,58.26
2022-09-20T12:23:59.245Z,58.43
2022-09-20T12:26:45.758Z,58.26
2022-09-20T12:30:16.869Z,57.39
2022-09-20T12:32:55.110Z,56.82
2022-09-20T12:35:56.090Z,56.08
2022-09-20T12:38:31.252Z,55.88
2022-09-20T12:41:00.677Z,55.42
2022-09-20T12:43:31.637Z,54.78
2022-09-20T12:46:04.546Z,54.64
2022-09-20T12:48:38.946Z,54.46
2022-09-20T12:51:37.755Z,54.48
2022-09-20T12:54:08.461Z,54.07
2022-09-20T12:56:38.806Z,52.84
2022-09-20T12:59:20.969Z,53.49
2022-09-20T13:01:48.740Z,53.29
2022-09-20T13:04:53.536Z,52.51
2022-09-20T13:07:38.779Z,52.83
2022-09-20T13:10:21.813Z,53.11
2022-09-20T13:12:54.372Z,52.95
2022-09-20T13:15:23.429Z,52.98
2022-09-20T13:17:54.173Z,53.49
2022-09-20T13:20:25.589Z,53.24
2022-09-20T13:22:58.304Z,52.37
2022-09-20T13:25:28.532Z,53.07
2022-09-20T13:28:08.225Z,51.72
2022-09-20T13:30:35.926Z,52.16
2022-09-20T13:33:24.690Z,52.37
2022-09-20T13:35:57.136Z,51.86
2022-09-20T13:38:29.930Z,51.23
2022-09-20T13:41:04.482Z,51.45
2022-09-20T13:43:34.347Z,50.95
2022-09-20T13:46:09.692Z,50.83
2022-09-20T13:48:37.599Z,51.73
2022-09-20T13:51:18.069Z,51.06
2022-09-20T13:53:46.753Z,51.90
2022-09-20T13:56:21.298Z,51.86
2022-09-20T13:58:49.759Z,51.48
2022-09-20T14:01:30.289Z,52.29
2022-09-20T14:04:03.692Z,51.83
2022-09-20T14:06:33.313Z,51.59
2022-09-20T14:09:08.338Z,51.89
2022-09-20T14:11:38.476Z,52.68
2022-09-20T14:14:08.971Z,53.28
2022-09-20T14:16:46.721Z,52.95
2022-09-20T14:19:17.300Z,53.19
2022-09-20T14:21:48.188Z,53.76
2022-09-20T14:24:31.863Z,53.47
2022-09-20T14:27:06.014Z,52.89
2022-09-20T14:29:42.178Z,53.81
2022-09-20T14:32:34.984Z,53.63
2022-09-20T14:35:07.257Z,52.96
2022-09-20T14:37:42.015Z,52.98
2022-09-20T14:40:20.969Z,52.72
2022-09-20T14:42:51.040Z,53.41
2022-09-20T14:45:24.086Z,53.80
2022-09-20T14:47:58.868Z,53.56
2022-09-20T14:50:29.549Z,53.05
2022-09-20T14:53:04.822Z,53.59
2022-09-20T14:55:37.204Z,53.44
2022-09-20T14:58:09.286Z,53.80
2022-09-20T15:00:53.399Z,53.81
2022-09-20T15:03:28.170Z,53.75
2022-09-20T15:05:56.449Z,53.93
2022-09-20T15:08:26.918Z,53.68
2022-09-20T15:10:54.882Z,53.70
2022-09-20T15:13:22.531Z,53.62
2022-09-20T15:15:52.224Z,54.15
2022-09-20T15:18:22.584Z,54.27
2022-09-20T15:20:51.025Z,54.31
2022-09-20T15:23:19.356Z,53.98
2022-09-20T15:25:51.491Z,54.78
2022-09-20T15:28:19.742Z,54.72
2022-09-20T15:30:51.805Z,54.71
2022-09-20T15:33:20.367Z,54.66
2022-09-20T15:35:49.212Z,54.83
2022-09-20T15:38:19.470Z,53.24
2022-09-20T15:40:50.026Z,53.15
2022-09-20T15:43:21.834Z,53.27
2022-09-20T15:45:51.498Z,53.50
2022-09-20T15:48:20.871Z,53.54
2022-09-20T15:51:01.837Z,53.31
2022-09-20T15:53:31.913Z,53.69
2022-09-20T15:56:02.422Z,53.99
2022-09-20T15:58:35.413Z,54.76
2022-09-20T16:01:06.407Z,55.18
2022-09-20T16:03:34.852Z,55.09
2022-09-20T16:06:04.764Z,55.41
2022-09-20T16:08:33.658Z,55.67
2022-09-20T16:11:03.116Z,56.18
2022-09-20T16:13:30.828Z,55.96
2022-09-20T16:15:59.833Z,56.52
2022-09-20T16:18:45.929Z,56.38
2022-09-20T16:21:16.214Z,56.91
2022-09-20T16:23:48.392Z,56.83
2022-09-20T16:26:18.507Z,57.46
2022-09-20T16:28:47.695Z,57.52
2022-09-20T16:31:39.935Z,57.57
2022-09-20T16:34:13.443Z,58.23
2022-09-20T16:36:43.256Z,58.19
2022-09-20T16:39:12.106Z,58.57
2022-09-20T16:41:41.134Z,59.02
2022-09-20T16:44:09.510Z,58.85
2022-09-20T16:46:38.254Z,59.05
2022-09-20T16:49:09.203Z,59.05
2022-09-20T16:51:38.923Z,59.26
2022-09-20T16:54:12.150Z,59.12
2022-09-20T16:56:43.439Z,59.26
2022-09-20T16:59:11.946Z,58.94
2022-09-20T17:01:40.713Z,58.86
2022-09-20T17:04:09.412Z,59.23
2022-09-20T17:06:39.022Z,59.09
2022-09-20T17:09:08.060Z,59.39
2022-09-20T17:11:37.819Z,59.29
2022-09-20T17:14:07.978Z,59.30
2022-09-20T17:16:37.510Z,59.80
2022-09-20T17:19:08.688Z,59.89
2022-09-20T17:21:38.729Z,60.13
2022-09-20T17:24:08.071Z,60.62
2022-09-20T17:26:38.351Z,60.32
2022-09-20T17:29:09.405Z,61.03
2022-09-20T17:31:38.106Z,60.47
2022-09-20T17:34:09.470Z,60.65
2022-09-20T17:36:39.731Z,60.95
2022-09-20T17:39:10.819Z,61.47
2022-09-20T17:41:39.033Z,61.03
2022-09-20T17:44:09.937Z,61.71
2022-09-20T17:46:39.394Z,61.29
2022-09-20T17:49:09.217Z,60.88
2022-09-20T17:51:38.658Z,60.90
2022-09-20T17:54:07.604Z,61.28
2022-09-20T17:56:35.840Z,61.39
2022-09-20T17:59:05.767Z,61.61
2022-09-20T18:01:36.146Z,61.34
2022-09-20T18:04:05.579Z,61.45
2022-09-20T18:06:36.118Z,61.32
2022-09-20T18:09:06.127Z,61.55
2022-09-20T18:11:35.782Z,62.14
2022-09-20T18:14:04.934Z,62.54
2022-09-20T18:16:35.086Z,62.36
2022-09-20T18:19:03.252Z,62.14
2022-09-20T18:21:32.111Z,62.90
2022-09-20T18:24:01.064Z,63.55
2022-09-20T18:26:32.260Z,63.05
2022-09-20T18:29:01.963Z,62.82
2022-09-20T18:31:32.370Z,62.92
2022-09-20T18:34:01.840Z,63.40
2022-09-20T18:36:39.602Z,63.85
2022-09-20T18:39:07.903Z,63.37
2022-09-20T18:41:37.157Z,63.62
2022-09-20T18:44:07.536Z,63.74
2022-09-20T18:46:38.764Z,63.38
2022-09-20T18:49:09.620Z,63.32
2022-09-20T18:51:40.185Z,63.40
2022-09-20T18:54:10.229Z,62.89
2022-09-20T18:56:39.594Z,63.20
2022-09-20T18:59:08.886Z,62.95
2022-09-20T19:02:00.600Z,63.30
2022-09-20T19:04:40.756Z,62.30
2022-09-20T19:07:16.914Z,62.35
2022-09-20T19:09:50.594Z,61.88
2022-09-20T19:12:24.018Z,61.82
2022-09-20T19:15:19.592Z,62.17
2022-09-20T19:18:02.607Z,62.00
2022-09-20T19:20:39.723Z,62.00
2022-09-20T19:23:30.204Z,61.83
2022-09-20T19:26:06.560Z,62.27
2022-09-20T19:28:34.961Z,63.23
2022-09-20T19:31:03.485Z,62.85
2022-09-20T19:33:31.637Z,62.63
2022-09-20T19:36:03.712Z,63.26
2022-09-20T19:38:42.078Z,63.65
2022-09-20T19:41:23.078Z,63.84
2022-09-20T19:44:04.334Z,63.98
2022-09-20T19:46:46.834Z,63.82
2022-09-20T19:49:16.220Z,62.56
2022-09-20T19:51:45.997Z,62.75
2022-09-20T19:54:15.818Z,62.98
2022-09-20T19:56:52.915Z,62.69
2022-09-20T19:59:21.798Z,62.48
2022-09-20T20:01:49.928Z,62.72
2022-09-20T20:04:18.214Z,63.08
2022-09-20T20:06:58.941Z,62.82
2022-09-20T20:09:37.308Z,63.05
2022-09-20T20:12:14.560Z,62.85
2022-09-20T20:14:55.899Z,63.27
2022-09-20T20:17:36.940Z,62.66
2022-09-20T20:20:16.372Z,63.40
2022-09-20T20:23:05.121Z,63.34
2022-09-20T20:25:42.159Z,63.04
2022-09-20T20:28:10.322Z,63.17
2022-09-20T20:30:38.072Z,63.56
2022-09-20T20:33:06.570Z,62.78
2022-09-20T20:35:34.293Z,62.41
2022-09-20T20:38:06.452Z,63.02
2022-09-20T20:40:33.953Z,63.33
2022-09-20T20:43:02.174Z,62.96
2022-09-20T20:45:30.369Z,63.33
2022-09-20T20:47:58.662Z,63.33
2022-09-20T20:50:27.005Z,64.32
2022-09-20T20:52:56.253Z,63.64
2022-09-20T20:55:26.659Z,64.18
2022-09-20T20:57:58.261Z,63.95
2022-09-20T21:00:26.438Z,64.39
2022-09-20T21:02:58.926Z,64.07
2022-09-20T21:05:26.892Z,63.53
2022-09-20T21:07:54.871Z,63.45
2022-09-20T21:10:23.747Z,63.26
2022-09-20T21:12:55.381Z,63.19
2022-09-20T21:15:23.404Z,64.01
2022-09-20T21:17:52.349Z,63.11
2022-09-20T21:20:21.505Z,63.60
2022-09-20T21:22:50.121Z,63.45
2022-09-20T21:25:19.995Z,64.56
2022-09-20T21:27:47.986Z,63.36
2022-09-20T21:30:17.197Z,63.56
2022-09-20T21:32:44.859Z,64.88
2022-09-20T21:35:12.632Z,63.84
2022-09-20T21:37:41.317Z,63.42
2022-09-20T21:40:10.647Z,63.69
2022-09-20T21:42:38.254Z,63.31
2022-09-20T21:45:10.317Z,63.19
2022-09-20T21:47:40.200Z,63.76
2022-09-20T21:50:09.748Z,63.54
2022-09-20T21:52:37.560Z,63.63
2022-09-20T21:55:06.939Z,63.81
2022-09-20T21:57:35.097Z,63.74
2022-09-20T22:00:03.012Z,64.37
2022-09-20T22:02:41.441Z,64.88
2022-09-20T22:05:09.249Z,63.84
2022-09-20T22:07:36.767Z,64.16
2022-09-20T22:10:04.881Z,63.77
2022-09-20T22:12:32.367Z,63.97
2022-09-20T22:14:59.867Z,63.86
2022-09-20T22:17:29.534Z,63.91
2022-09-20T22:19:59.447Z,64.28
2022-09-20T22:22:28.501Z,63.67
2022-09-20T22:24:56.059Z,63.66
2022-09-20T22:27:23.622Z,64.10
2022-09-20T22:29:51.436Z,62.97
2022-09-20T22:32:19.254Z,63.02
2022-09-20T22:34:46.750Z,63.68
2022-09-20T22:37:17.470Z,63.11
2022-09-20T22:39:46.591Z,63.30
2022-09-20T22:42:14.136Z,63.80
2022-09-20T22:44:41.601Z,64.25
2022-09-20T22:47:09.130Z,63.64
2022-09-20T22:49:36.622Z,63.63
2022-09-20T22:52:04.211Z,64.18
2022-09-20T22:54:35.475Z,64.09
2022-09-20T22:57:03.014Z,65.03
2022-09-20T22:59:30.881Z,65.12
2022-09-20T23:01:59.007Z,65.02
2022-09-20T23:04:26.532Z,64.81
2022-09-20T23:06:55.512Z,65.00
2022-09-20T23:09:24.423Z,64.09
2022-09-20T23:11:53.497Z,64.94
2022-09-20T23:14:23.146Z,64.45
2022-09-20T23:16:50.904Z,64.11
2022-09-20T23:19:18.497Z,64.60
2022-09-20T23:21:46.189Z,64.14
2022-09-20T23:24:15.594Z,64.63
2022-09-20T23:26:44.279Z,63.88
2022-09-20T23:29:15.679Z,64.22
2022-09-20T23:31:46.636Z,63.95
2022-09-20T23:34:14.727Z,63.90
2022-09-20T23:36:43.014Z,64.04
2022-09-20T23:39:11.943Z,64.90
2022-09-20T23:41:41.175Z,64.63
2022-09-20T23:44:09.871Z,64.21
2022-09-20T23:46:39.658Z,64.00
2022-09-20T23:49:09.266Z,63.92
2022-09-20T23:51:37.793Z,64.10
2022-09-20T23:54:05.834Z,64.84
2022-09-20T23:56:33.715Z,64.09
2022-09-20T23:59:01.194Z,64.77
